createdAt,value
2019-04-10T00:00:41.334Z,6.89
2019-04-10T00:03:24.941Z,6.88
2019-04-10T00:05:40.923Z,6.85
2019-04-10T00:08:10.193Z,6.81
2019-04-10T00:10:38.506Z,6.75
2019-04-10T00:13:07.378Z,6.73
2019-04-10T00:15:36.181Z,6.69
2019-04-10T00:18:07.397Z,6.69
2019-04-10T00:20:36.494Z,6.62
2019-04-10T00:23:04.948Z,6.60
2019-04-10T00:25:34.983Z,6.57
2019-04-10T00:28:03.586Z,6.51
2019-04-10T00:30:33.267Z,6.44
2019-04-10T00:33:02.716Z,6.41
2019-04-10T00:35:31.689Z,6.37
2019-04-10T00:37:59.955Z,6.34
2019-04-10T00:40:28.908Z,6.28
2019-04-10T00:43:00.207Z,6.24
2019-04-10T00:45:27.952Z,6.20
2019-04-10T00:47:56.752Z,6.15
2019-04-10T00:50:26.477Z,6.13
2019-04-10T00:52:54.685Z,6.08
2019-04-10T00:55:23.803Z,6.02
2019-04-10T00:57:54.587Z,6.00
2019-04-10T01:00:23.541Z,5.96
2019-04-10T01:02:52.073Z,5.94
2019-04-10T01:05:20.883Z,5.91
2019-04-10T01:07:51.828Z,5.85
2019-04-10T01:10:19.904Z,5.80
2019-04-10T01:12:48.570Z,5.79
2019-04-10T01:15:18.310Z,5.71
2019-04-10T01:17:46.616Z,5.69
2019-04-10T01:20:15.577Z,5.67
2019-04-10T01:22:43.938Z,5.60
2019-04-10T01:25:12.719Z,5.55
2019-04-10T01:27:42.495Z,5.52
2019-04-10T01:30:10.918Z,5.49
2019-04-10T01:32:39.875Z,5.46
2019-04-10T01:35:09.925Z,5.43
2019-04-10T01:37:48.840Z,5.38
2019-04-10T01:40:07.794Z,5.32
2019-04-10T01:42:36.893Z,5.31
2019-04-10T01:45:05.806Z,5.26
2019-04-10T01:47:35.232Z,5.21
2019-04-10T01:50:04.422Z,5.18
2019-04-10T01:52:33.335Z,5.16
2019-04-10T01:55:16.018Z,5.12
2019-04-10T01:57:32.916Z,5.07
2019-04-10T02:00:02.743Z,5.03
2019-04-10T02:02:39.160Z,5.01
2019-04-10T02:05:08.283Z,4.97
2019-04-10T02:07:38.257Z,4.92
2019-04-10T02:10:07.932Z,4.90
2019-04-10T02:12:37.006Z,4.86
2019-04-10T02:15:07.104Z,4.80
2019-04-10T02:17:36.682Z,4.78
2019-04-10T02:20:05.594Z,4.74
2019-04-10T02:22:34.400Z,4.70
2019-04-10T02:25:03.444Z,4.66
2019-04-10T02:27:32.219Z,4.63
2019-04-10T02:30:01.251Z,4.57
2019-04-10T02:32:32.356Z,4.53
2019-04-10T02:35:01.219Z,4.47
2019-04-10T02:37:29.236Z,4.45
2019-04-10T02:40:02.637Z,4.43
2019-04-10T02:42:27.449Z,4.39
2019-04-10T02:44:57.804Z,4.35
2019-04-10T02:47:28.300Z,4.33
2019-04-10T02:49:57.136Z,4.30
2019-04-10T02:52:26.101Z,4.25
2019-04-10T02:54:55.144Z,4.22
2019-04-10T02:57:25.309Z,4.20
2019-04-10T02:59:53.879Z,4.11
2019-04-10T03:02:22.308Z,4.12
2019-04-10T03:04:51.115Z,4.09
2019-04-10T03:07:19.992Z,4.05
2019-04-10T03:10:00.630Z,4.03
2019-04-10T03:12:19.728Z,3.99
2019-04-10T03:14:49.708Z,3.94
2019-04-10T03:17:19.703Z,3.90
2019-04-10T03:19:47.392Z,3.86
2019-04-10T03:22:16.645Z,3.84
2019-04-10T03:24:45.208Z,3.79
2019-04-10T03:27:14.309Z,3.75
2019-04-10T03:29:44.852Z,3.73
2019-04-10T03:32:18.821Z,3.70
2019-04-10T03:34:48.332Z,3.62
2019-04-10T03:37:16.001Z,3.59
2019-04-10T03:39:44.151Z,3.55
2019-04-10T03:42:13.532Z,3.50
2019-04-10T03:44:43.032Z,3.47
2019-04-10T03:47:13.385Z,3.46
2019-04-10T03:49:42.744Z,3.40
2019-04-10T03:52:12.075Z,3.36
2019-04-10T03:54:40.863Z,3.36
2019-04-10T03:57:10.105Z,3.34
2019-04-10T03:59:40.210Z,3.32
2019-04-10T04:02:07.739Z,3.31
2019-04-10T04:04:37.683Z,3.26
2019-04-10T04:07:07.055Z,3.22
2019-04-10T04:09:35.632Z,3.21
2019-04-10T04:12:04.406Z,3.18
2019-04-10T04:14:33.392Z,3.14
2019-04-10T04:17:04.198Z,3.14
2019-04-10T04:19:34.447Z,3.10
2019-04-10T04:22:02.155Z,3.08
2019-04-10T04:24:31.597Z,3.06
2019-04-10T04:27:00.576Z,3.00
2019-04-10T04:29:28.840Z,2.96
2019-04-10T04:31:59.013Z,2.97
2019-04-10T04:34:27.499Z,2.91
2019-04-10T04:36:56.294Z,2.89
2019-04-10T04:39:28.127Z,2.85
2019-04-10T04:41:53.855Z,2.84
2019-04-10T04:44:22.675Z,2.83
2019-04-10T04:46:52.624Z,2.80
2019-04-10T04:49:20.975Z,2.78
2019-04-10T04:51:50.603Z,2.79
2019-04-10T04:54:19.247Z,2.77
2019-04-10T04:56:48.518Z,2.76
2019-04-10T04:59:18.346Z,2.75
2019-04-10T05:01:46.873Z,2.72
2019-04-10T05:04:15.399Z,2.68
2019-04-10T05:06:44.215Z,2.66
2019-04-10T05:09:17.032Z,2.69
2019-04-10T05:11:42.679Z,2.65
2019-04-10T05:14:11.070Z,2.66
2019-04-10T05:16:41.663Z,2.61
2019-04-10T05:19:10.584Z,2.58
2019-04-10T05:21:39.448Z,2.60
2019-04-10T05:24:08.403Z,2.60
2019-04-10T05:26:36.988Z,2.59
2019-04-10T05:29:07.173Z,2.66
2019-04-10T05:31:37.658Z,2.72
2019-04-10T05:34:06.691Z,2.75
2019-04-10T05:36:36.076Z,2.75
2019-04-10T05:39:06.732Z,2.76
2019-04-10T05:41:35.997Z,2.82
2019-04-10T05:44:05.358Z,2.89
2019-04-10T05:46:36.775Z,2.93
2019-04-10T05:49:06.660Z,2.92
2019-04-10T05:51:34.494Z,2.94
2019-04-10T05:54:05.158Z,3.00
2019-04-10T05:56:34.320Z,3.07
2019-04-10T05:59:07.025Z,3.16
2019-04-10T06:01:38.130Z,3.27
2019-04-10T06:04:03.711Z,3.35
2019-04-10T06:06:32.663Z,3.31
2019-04-10T06:09:02.515Z,3.40
2019-04-10T06:11:30.998Z,3.40
2019-04-10T06:13:59.170Z,4.17
2019-04-10T06:16:30.218Z,6.23
2019-04-10T06:18:59.777Z,7.74
2019-04-10T06:21:29.906Z,8.73
2019-04-10T06:23:58.422Z,9.91
2019-04-10T06:26:28.030Z,10.68
2019-04-10T06:28:56.932Z,11.35
2019-04-10T06:31:25.670Z,12.12
2019-04-10T06:33:54.520Z,12.72
2019-04-10T06:36:25.116Z,12.66
2019-04-10T06:38:55.108Z,13.14
2019-04-10T06:41:26.395Z,13.02
2019-04-10T06:43:55.283Z,12.98
2019-04-10T06:46:24.235Z,13.70
2019-04-10T06:48:52.093Z,13.96
2019-04-10T06:51:21.590Z,14.82
2019-04-10T06:54:00.842Z,15.58
2019-04-10T06:56:19.419Z,16.02
2019-04-10T06:58:48.235Z,15.58
2019-04-10T07:01:21.036Z,15.24
2019-04-10T07:03:56.542Z,14.79
2019-04-10T07:06:19.008Z,14.61
2019-04-10T07:08:48.883Z,14.54
2019-04-10T07:11:13.497Z,14.91
2019-04-10T07:13:41.697Z,16.11
2019-04-10T07:16:11.272Z,16.77
2019-04-10T07:18:40.153Z,17.00
2019-04-10T07:21:08.644Z,16.19
2019-04-10T07:23:38.629Z,15.27
2019-04-10T07:26:07.123Z,15.38
2019-04-10T07:28:38.793Z,16.25
2019-04-10T07:31:08.437Z,17.30
2019-04-10T07:33:37.053Z,17.84
2019-04-10T07:36:09.010Z,17.99
2019-04-10T07:38:35.009Z,17.76
2019-04-10T07:41:07.082Z,17.15
2019-04-10T07:43:32.566Z,17.32
2019-04-10T07:46:01.401Z,18.16
2019-04-10T07:48:31.456Z,18.13
2019-04-10T07:51:00.955Z,18.22
2019-04-10T07:53:30.894Z,18.46
2019-04-10T07:56:06.381Z,18.44
2019-04-10T07:58:29.208Z,18.58
2019-04-10T08:00:59.346Z,18.87
2019-04-10T08:03:28.763Z,18.91
2019-04-10T08:05:57.995Z,18.20
2019-04-10T08:08:30.381Z,17.38
2019-04-10T08:11:01.644Z,16.40
2019-04-10T08:13:33.119Z,14.51
2019-04-10T08:16:02.606Z,14.04
2019-04-10T08:18:32.242Z,13.80
2019-04-10T08:21:03.340Z,13.55
2019-04-10T08:23:32.152Z,13.44
2019-04-10T08:26:01.943Z,13.34
2019-04-10T08:28:31.232Z,13.12
2019-04-10T08:31:01.025Z,12.86
2019-04-10T08:33:30.201Z,12.57
2019-04-10T08:35:58.984Z,12.36
2019-04-10T08:38:28.059Z,11.99
2019-04-10T08:40:56.589Z,11.77
2019-04-10T08:43:26.663Z,11.80
2019-04-10T08:45:55.491Z,11.86
2019-04-10T08:48:30.464Z,11.80
2019-04-10T08:50:58.897Z,11.65
2019-04-10T08:53:28.598Z,11.66
2019-04-10T08:55:56.818Z,11.67
2019-04-10T08:58:25.290Z,11.64
2019-04-10T09:00:54.294Z,11.77
2019-04-10T09:03:24.548Z,11.68
2019-04-10T09:05:53.207Z,11.79
2019-04-10T09:09:23.758Z,11.94
2019-04-10T09:11:53.514Z,11.99
2019-04-10T09:14:23.126Z,12.05
2019-04-10T09:16:51.120Z,11.95
2019-04-10T09:19:22.788Z,12.03
2019-04-10T09:21:52.655Z,12.27
2019-04-10T09:24:21.641Z,12.40
2019-04-10T09:26:50.839Z,12.57
2019-04-10T09:29:21.854Z,12.54
2019-04-10T09:31:50.301Z,12.65
2019-04-10T09:34:18.179Z,12.79
2019-04-10T09:36:47.019Z,12.55
2019-04-10T09:39:17.081Z,12.76
2019-04-10T09:41:46.328Z,12.97
2019-04-10T09:44:15.168Z,12.33
2019-04-10T09:46:45.044Z,12.14
2019-04-10T09:49:14.348Z,12.33
2019-04-10T09:51:42.500Z,12.36
2019-04-10T09:54:13.332Z,12.46
2019-04-10T09:56:41.970Z,12.34
2019-04-10T09:59:09.919Z,12.74
2019-04-10T10:01:39.547Z,13.03
2019-04-10T10:04:40.318Z,13.14
2019-04-10T10:07:10.305Z,13.35
2019-04-10T10:09:38.683Z,13.13
2019-04-10T10:12:09.541Z,12.87
2019-04-10T10:14:38.049Z,12.72
2019-04-10T10:17:06.667Z,12.63
2019-04-10T10:19:39.147Z,12.92
2019-04-10T10:22:10.246Z,13.32
2019-04-10T10:24:39.077Z,13.49
2019-04-10T10:27:09.493Z,13.69
2019-04-10T10:29:37.695Z,13.77
2019-04-10T10:32:06.779Z,13.28
2019-04-10T10:34:36.648Z,12.96
2019-04-10T10:37:06.213Z,13.07
2019-04-10T10:39:34.946Z,12.94
2019-04-10T10:42:03.262Z,13.28
2019-04-10T10:44:32.297Z,13.80
2019-04-10T10:47:02.091Z,13.86
2019-04-10T10:49:32.605Z,13.91
2019-04-10T10:52:03.523Z,13.94
2019-04-10T10:54:31.405Z,13.76
2019-04-10T10:57:01.257Z,13.54
2019-04-10T10:59:30.471Z,13.39
2019-04-10T11:02:00.237Z,13.26
2019-04-10T11:04:29.689Z,13.44
2019-04-10T11:07:01.293Z,13.22
2019-04-10T11:09:30.182Z,13.24
2019-04-10T11:12:00.122Z,13.35
2019-04-10T11:14:29.915Z,13.61
2019-04-10T11:16:58.515Z,13.48
2019-04-10T11:19:27.359Z,13.48
2019-04-10T11:21:56.863Z,13.53
2019-04-10T11:24:26.744Z,14.08
2019-04-10T11:26:55.871Z,13.70
2019-04-10T11:29:26.472Z,13.54
2019-04-10T11:31:55.590Z,14.12
2019-04-10T11:34:24.244Z,14.65
2019-04-10T11:37:14.164Z,15.02
2019-04-10T11:41:50.437Z,14.79
2019-04-10T11:44:20.339Z,14.81
2019-04-10T11:46:49.456Z,14.86
2019-04-10T11:49:20.214Z,14.59
2019-04-10T11:51:49.936Z,14.59
2019-04-10T11:54:18.120Z,14.69
2019-04-10T11:56:48.705Z,14.75
2019-04-10T11:59:14.844Z,14.62
2019-04-10T12:01:47.958Z,14.40
2019-04-10T12:04:19.194Z,14.42
2019-04-10T12:06:49.198Z,14.38
2019-04-10T12:10:00.122Z,14.23
2019-04-10T12:11:45.486Z,14.22
2019-04-10T12:14:15.266Z,14.64
2019-04-10T12:16:43.943Z,14.99
2019-04-10T12:19:13.283Z,15.21
2019-04-10T12:21:42.151Z,15.06
2019-04-10T12:24:11.564Z,15.43
2019-04-10T12:26:40.275Z,15.29
2019-04-10T12:29:09.219Z,15.01
2019-04-10T12:31:38.103Z,14.88
2019-04-10T12:34:07.049Z,15.01
2019-04-10T12:36:38.628Z,15.03
2019-04-10T12:39:08.869Z,15.32
2019-04-10T12:41:37.623Z,14.82
2019-04-10T12:44:07.482Z,14.51
2019-04-10T12:46:37.323Z,14.48
2019-04-10T12:49:06.118Z,14.57
2019-04-10T12:51:36.017Z,14.64
2019-04-10T12:54:04.652Z,14.62
2019-04-10T12:56:34.609Z,14.47
2019-04-10T12:59:03.423Z,14.41
2019-04-10T13:01:33.652Z,14.36
2019-04-10T13:04:03.399Z,14.51
2019-04-10T13:06:31.734Z,14.66
2019-04-10T13:09:07.392Z,14.78
2019-04-10T13:11:29.012Z,14.95
2019-04-10T13:13:58.232Z,14.84
2019-04-10T13:16:27.978Z,14.87
2019-04-10T13:18:56.804Z,14.92
2019-04-10T13:21:28.484Z,15.14
2019-04-10T13:24:03.642Z,14.97
2019-04-10T13:26:32.674Z,14.91
2019-04-10T13:29:01.579Z,14.75
2019-04-10T13:31:30.908Z,14.58
2019-04-10T13:34:00.694Z,14.48
2019-04-10T13:36:29.369Z,14.73
2019-04-10T13:38:58.198Z,14.80
2019-04-10T13:41:26.285Z,14.47
2019-04-10T13:43:55.105Z,14.43
2019-04-10T13:46:24.676Z,14.68
2019-04-10T13:48:53.486Z,15.01
2019-04-10T13:51:21.535Z,15.09
2019-04-10T13:53:50.376Z,15.12
2019-04-10T13:56:19.227Z,15.00
2019-04-10T13:58:52.783Z,14.95
2019-04-10T14:01:27.414Z,14.65
2019-04-10T14:03:56.234Z,14.80
2019-04-10T14:06:25.999Z,14.87
2019-04-10T14:09:08.685Z,14.55
2019-04-10T14:11:24.840Z,14.13
2019-04-10T14:13:52.507Z,14.14
2019-04-10T14:16:22.459Z,14.19
2019-04-10T14:18:51.255Z,14.05
2019-04-10T14:21:20.844Z,13.74
2019-04-10T14:23:51.425Z,13.80
2019-04-10T14:26:52.214Z,13.56
2019-04-10T14:29:21.070Z,13.40
2019-04-10T14:31:56.503Z,13.40
2019-04-10T14:34:24.286Z,13.34
2019-04-10T14:36:53.100Z,13.24
2019-04-10T14:39:24.330Z,13.08
2019-04-10T14:41:53.941Z,13.14
2019-04-10T14:44:23.420Z,13.13
2019-04-10T14:46:53.804Z,13.01
2019-04-10T14:49:21.486Z,13.22
2019-04-10T14:51:52.601Z,13.35
2019-04-10T14:54:21.743Z,13.28
2019-04-10T14:56:50.497Z,13.14
2019-04-10T14:59:19.824Z,12.99
2019-04-10T15:01:48.550Z,13.00
2019-04-10T15:04:17.381Z,13.21
2019-04-10T15:06:46.160Z,13.33
2019-04-10T15:09:22.178Z,13.35
2019-04-10T15:11:46.821Z,13.40
2019-04-10T15:14:15.203Z,13.42
2019-04-10T15:16:52.927Z,13.38
2019-04-10T15:19:13.598Z,13.26
2019-04-10T15:21:43.046Z,13.07
2019-04-10T15:24:11.743Z,13.13
2019-04-10T15:26:41.402Z,13.22
2019-04-10T15:29:12.201Z,13.28
2019-04-10T15:31:40.235Z,13.22
2019-04-10T15:34:09.821Z,13.03
2019-04-10T15:36:38.537Z,12.79
2019-04-10T15:39:08.700Z,12.63
2019-04-10T15:41:37.127Z,12.55
2019-04-10T15:44:06.068Z,12.62
2019-04-10T15:46:35.296Z,12.73
2019-04-10T15:49:03.788Z,12.71
2019-04-10T15:51:33.214Z,12.63
2019-04-10T15:54:02.659Z,12.52
2019-04-10T15:56:31.924Z,12.50
2019-04-10T15:59:01.324Z,12.47
2019-04-10T16:01:31.163Z,12.43
2019-04-10T16:04:01.162Z,12.23
2019-04-10T16:06:29.783Z,12.13
2019-04-10T16:08:58.879Z,12.05
2019-04-10T16:11:34.070Z,11.99
2019-04-10T16:14:16.669Z,11.90
2019-04-10T16:18:41.180Z,11.82
2019-04-10T16:21:10.975Z,11.74
2019-04-10T16:23:50.460Z,11.67
2019-04-10T16:26:20.134Z,11.59
2019-04-10T16:28:50.220Z,11.55
2019-04-10T16:31:19.404Z,11.56
2019-04-10T16:33:48.453Z,11.49
2019-04-10T16:36:17.731Z,11.40
2019-04-10T16:38:47.344Z,11.32
2019-04-10T16:41:17.228Z,11.31
2019-04-10T16:43:45.141Z,11.24
2019-04-10T16:46:14.047Z,11.18
2019-04-10T16:48:42.844Z,11.13
2019-04-10T16:51:12.110Z,11.07
2019-04-10T16:53:41.281Z,11.01
2019-04-10T16:56:09.535Z,10.90
2019-04-10T16:58:38.286Z,10.91
2019-04-10T17:01:07.070Z,10.89
2019-04-10T17:03:36.023Z,10.77
2019-04-10T17:06:06.056Z,10.68
2019-04-10T17:08:37.387Z,10.68
2019-04-10T17:11:05.337Z,10.62
2019-04-10T17:13:34.933Z,10.63
2019-04-10T17:16:05.143Z,10.56
2019-04-10T17:18:33.028Z,10.49
2019-04-10T17:21:02.642Z,10.47
2019-04-10T17:23:30.743Z,10.36
2019-04-10T17:26:00.395Z,10.36
2019-04-10T17:28:28.560Z,10.30
2019-04-10T17:30:58.347Z,10.29
2019-04-10T17:33:28.258Z,10.27
2019-04-10T17:35:57.749Z,10.23
2019-04-10T17:44:07.719Z,10.05
2019-04-10T17:46:37.428Z,10.00
2019-04-10T17:49:10.280Z,9.96
2019-04-10T17:51:38.486Z,9.91
2019-04-10T17:54:09.650Z,9.84
2019-04-10T17:56:40.251Z,9.79
2019-04-10T17:59:10.045Z,9.74
2019-04-10T18:01:39.353Z,9.67
2019-04-10T18:04:08.152Z,9.60
2019-04-10T18:06:36.997Z,9.54
2019-04-10T18:09:08.186Z,9.47
2019-04-10T18:11:37.355Z,9.38
2019-04-10T18:14:06.997Z,9.33
2019-04-10T18:16:36.205Z,9.28
2019-04-10T18:19:06.135Z,9.22
2019-04-10T18:21:34.968Z,9.15
2019-04-10T18:24:02.575Z,9.08
2019-04-10T18:26:31.993Z,9.01
2019-04-10T18:29:02.419Z,8.95
2019-04-10T18:31:31.271Z,8.87
2019-04-10T18:34:00.720Z,8.83
2019-04-10T18:36:29.870Z,8.75
2019-04-10T18:38:59.832Z,8.67
2019-04-10T18:41:29.918Z,8.58
2019-04-10T18:43:58.537Z,8.48
2019-04-10T18:46:27.053Z,8.42
2019-04-10T18:48:56.769Z,8.33
2019-04-10T18:51:27.774Z,8.24
2019-04-10T18:53:57.599Z,8.19
2019-04-10T18:56:25.505Z,8.10
2019-04-10T18:59:18.764Z,8.06
2019-04-10T19:01:53.614Z,7.99
2019-04-10T19:04:27.964Z,7.92
2019-04-10T19:06:58.615Z,7.86
2019-04-10T19:09:30.393Z,7.81
2019-04-10T19:11:58.571Z,7.73
2019-04-10T19:14:28.157Z,7.66
2019-04-10T19:16:56.285Z,7.63
2019-04-10T19:19:26.009Z,7.56
2019-04-10T19:21:55.895Z,7.52
2019-04-10T19:24:23.338Z,7.46
2019-04-10T19:26:52.111Z,7.42
2019-04-10T19:29:22.138Z,7.36
2019-04-10T19:31:54.120Z,7.29
2019-04-10T19:34:23.450Z,7.24
2019-04-10T19:36:52.739Z,7.19
2019-04-10T19:39:22.291Z,7.13
2019-04-10T19:41:51.006Z,7.07
2019-04-10T19:44:19.306Z,7.02
2019-04-10T19:46:50.096Z,6.99
2019-04-10T19:49:17.742Z,6.94
2019-04-10T19:51:46.761Z,6.89
2019-04-10T19:54:15.707Z,6.83
2019-04-10T19:56:44.613Z,6.79
2019-04-10T19:59:12.988Z,6.76
2019-04-10T20:01:42.365Z,6.71
2019-04-10T20:04:12.339Z,6.67
2019-04-10T20:06:40.585Z,6.64
2019-04-10T20:09:10.372Z,6.62
2019-04-10T20:11:44.745Z,6.58
2019-04-10T20:14:08.414Z,6.53
2019-04-10T20:16:37.511Z,6.49
2019-04-10T20:19:05.728Z,6.44
2019-04-10T20:21:34.575Z,6.40
2019-04-10T20:24:03.470Z,6.37
2019-04-10T20:26:32.277Z,6.34
2019-04-10T20:29:02.337Z,6.29
2019-04-10T20:31:33.161Z,6.26
2019-04-10T20:34:01.720Z,6.23
2019-04-10T20:36:31.206Z,6.18
2019-04-10T20:39:00.894Z,6.14
2019-04-10T20:41:28.936Z,6.07
2019-04-10T20:43:59.543Z,6.04
2019-04-10T20:46:28.497Z,6.01
2019-04-10T20:48:57.188Z,5.98
2019-04-10T20:51:26.238Z,5.94
2019-04-10T20:53:56.055Z,5.87
2019-04-10T20:56:24.526Z,5.83
2019-04-10T20:58:54.846Z,5.80
2019-04-10T21:01:22.850Z,5.77
2019-04-10T21:03:52.391Z,5.74
2019-04-10T21:06:21.068Z,5.69
2019-04-10T21:08:50.314Z,5.68
2019-04-10T21:11:18.123Z,5.62
2019-04-10T21:13:48.862Z,5.60
2019-04-10T21:16:17.598Z,5.56
2019-04-10T21:18:46.203Z,5.53
2019-04-10T21:21:14.493Z,5.49
2019-04-10T21:23:44.267Z,5.46
2019-04-10T21:26:12.584Z,5.42
2019-04-10T21:28:41.614Z,5.39
2019-04-10T21:31:18.191Z,5.36
2019-04-10T21:33:52.642Z,5.29
2019-04-10T21:36:21.100Z,5.27
2019-04-10T21:38:50.656Z,5.25
2019-04-10T21:41:20.731Z,5.21
2019-04-10T21:43:51.159Z,5.17
2019-04-10T21:46:19.949Z,5.14
2019-04-10T21:48:49.347Z,5.09
2019-04-10T21:51:19.004Z,5.08
2019-04-10T21:53:47.845Z,5.04
2019-04-10T21:56:16.651Z,4.99
2019-04-10T21:58:46.504Z,4.96
2019-04-10T22:01:15.658Z,4.93
2019-04-10T22:03:43.790Z,4.90
2019-04-10T22:06:21.875Z,4.88
2019-04-10T22:08:54.746Z,4.84
2019-04-10T22:11:23.665Z,4.79
2019-04-10T22:13:53.419Z,4.76
2019-04-10T22:16:22.243Z,4.72
2019-04-10T22:18:51.984Z,4.69
2019-04-10T22:21:20.711Z,4.65
2019-04-10T22:23:50.855Z,4.61
2019-04-10T22:26:19.911Z,4.57
2019-04-10T22:28:47.670Z,4.52
2019-04-10T22:31:16.382Z,4.50
2019-04-10T22:33:45.171Z,4.48
2019-04-10T22:36:14.977Z,4.42
2019-04-10T22:38:44.025Z,4.40
2019-04-10T22:41:23.706Z,4.36
2019-04-10T22:43:42.894Z,4.35
2019-04-10T22:46:11.082Z,4.33
2019-04-10T22:48:39.887Z,4.29
2019-04-10T22:51:09.709Z,4.25
2019-04-10T22:53:37.700Z,4.23
2019-04-10T22:56:07.051Z,4.21
2019-04-10T22:58:37.272Z,4.16
2019-04-10T23:01:06.924Z,4.14
2019-04-10T23:03:36.634Z,4.11
2019-04-10T23:06:07.028Z,4.08
2019-04-10T23:08:35.807Z,4.06
2019-04-10T23:11:05.686Z,4.01
2019-04-10T23:13:34.154Z,3.99
2019-04-10T23:16:04.081Z,3.98
2019-04-10T23:18:33.760Z,3.94
2019-04-10T23:21:02.347Z,3.89
2019-04-10T23:23:31.135Z,3.87
2019-04-10T23:26:00.623Z,3.86
2019-04-10T23:28:29.034Z,3.83
2019-04-10T23:30:59.382Z,3.80
2019-04-10T23:33:28.124Z,3.78
2019-04-10T23:35:56.228Z,3.75
2019-04-10T23:38:25.713Z,3.73
2019-04-10T23:40:53.798Z,3.70
2019-04-10T23:43:24.226Z,3.68
2019-04-10T23:45:53.650Z,3.65
2019-04-10T23:48:23.110Z,3.61
2019-04-10T23:50:51.880Z,3.61
2019-04-10T23:53:20.668Z,3.57
2019-04-10T23:55:50.338Z,3.54
2019-04-10T23:58:19.893Z,3.52
